Paint Lick, Virginia
Current Conditions -  °F | °C
As of 12:15 PM on Thursday 27 Nov 2014 (Local Time) from KJFZ Reporting Station
Overcast Overcast  
Wind Chill: 25°   Ceiling: 700
Heat Index: 32°   Visibility: 10mi
Dew Point: 29°   Wind: 8mph
Humidity: 88%   Direction: 300°WNW
Pressure: 30.12"   Gusts: NA
Location:  37.0457°N, 81.7316°W
Report Text: KJFZ 271715Z AUTO 30007KT 10SM OVC007 00/M02 A3012 RMK AO2 T00001017
Loading
Personal Weather Stations






























Interactive Weather Map New forecast layout! Learn more

10-Day Weather Forecast

Advertisements
Track Severe Weather on mobile